createdAt,value
2022-12-20T00:01:37.551Z,33.90
2022-12-20T00:05:04.243Z,32.50
2022-12-20T00:08:30.758Z,31.40
2022-12-20T00:11:57.291Z,30.30
2022-12-20T00:15:23.906Z,30.40
2022-12-20T00:18:55.054Z,30.10
2022-12-20T00:22:21.844Z,30.60
2022-12-20T00:25:48.417Z,29.90
2022-12-20T00:29:15.128Z,30.50
2022-12-20T00:32:41.634Z,29.20
2022-12-20T00:36:09.670Z,30.60
2022-12-20T00:39:37.070Z,30.80
2022-12-20T00:43:04.749Z,29.00
2022-12-20T00:46:31.949Z,30.50
2022-12-20T00:49:59.084Z,30.40
2022-12-20T00:53:26.676Z,31.10
2022-12-20T00:56:53.812Z,30.70
2022-12-20T01:00:21.792Z,31.00
2022-12-20T01:03:48.139Z,31.80
2022-12-20T01:07:17.630Z,31.00
2022-12-20T01:10:44.089Z,30.20
2022-12-20T01:14:15.145Z,29.70
2022-12-20T01:17:42.238Z,29.10
2022-12-20T01:21:11.902Z,29.40
2022-12-20T01:24:38.803Z,29.90
2022-12-20T01:28:06.905Z,31.30
2022-12-20T01:31:33.550Z,32.30
2022-12-20T01:35:00.312Z,30.00
2022-12-20T01:38:27.198Z,31.70
2022-12-20T01:41:58.765Z,33.50
2022-12-20T01:45:30.364Z,32.70
2022-12-20T01:49:02.721Z,31.00
2022-12-20T01:52:34.490Z,32.10
2022-12-20T01:56:05.340Z,29.60
2022-12-20T01:59:35.222Z,28.30
2022-12-20T02:03:07.062Z,30.50
2022-12-20T02:06:33.669Z,29.80
2022-12-20T02:10:02.383Z,29.40
2022-12-20T02:13:39.685Z,28.50
2022-12-20T02:17:14.231Z,28.90
2022-12-20T02:21:21.546Z,28.80
2022-12-20T02:25:13.408Z,29.00
2022-12-20T02:28:58.023Z,27.30
2022-12-20T02:32:28.685Z,27.00
2022-12-20T02:35:56.351Z,27.30
2022-12-20T02:39:24.586Z,29.20
2022-12-20T02:42:53.864Z,27.80
2022-12-20T02:46:22.295Z,28.20
2022-12-20T02:49:52.785Z,28.80
2022-12-20T02:53:20.052Z,29.70
2022-12-20T02:56:52.228Z,29.90
2022-12-20T03:00:21.910Z,30.70
2022-12-20T03:03:49.372Z,30.60
2022-12-20T03:07:17.581Z,30.60
2022-12-20T03:10:44.338Z,29.90
2022-12-20T03:14:11.722Z,28.20
2022-12-20T03:17:38.802Z,28.70
2022-12-20T03:21:06.009Z,27.60
2022-12-20T03:24:32.903Z,26.90
2022-12-20T03:28:00.134Z,27.30
2022-12-20T03:31:27.716Z,27.80
2022-12-20T03:34:55.312Z,27.30
2022-12-20T03:38:27.109Z,26.60
2022-12-20T03:41:54.031Z,26.90
2022-12-20T03:45:20.674Z,25.70
2022-12-20T03:48:48.358Z,26.20
2022-12-20T03:52:16.039Z,26.30
2022-12-20T03:55:45.381Z,27.40
2022-12-20T03:59:13.231Z,25.90
2022-12-20T04:02:42.000Z,27.20
2022-12-20T04:06:09.695Z,25.50
2022-12-20T04:09:37.066Z,27.20
2022-12-20T04:13:07.549Z,27.60
2022-12-20T04:16:36.080Z,29.30
2022-12-20T04:20:19.241Z,27.40
2022-12-20T04:23:50.449Z,25.70
2022-12-20T04:27:16.991Z,26.70
2022-12-20T04:30:43.901Z,25.10
2022-12-20T04:34:11.229Z,26.10
2022-12-20T04:37:38.558Z,23.90
2022-12-20T04:41:05.750Z,25.80
2022-12-20T04:44:44.421Z,26.00
2022-12-20T04:48:46.240Z,26.70
2022-12-20T04:52:18.196Z,27.40
2022-12-20T04:55:45.535Z,28.80
2022-12-20T04:59:13.762Z,27.00
2022-12-20T05:02:42.414Z,27.20
2022-12-20T05:06:12.969Z,26.40
2022-12-20T05:09:43.652Z,27.60
2022-12-20T05:13:11.210Z,27.80
2022-12-20T05:16:41.991Z,27.20
2022-12-20T05:20:12.034Z,28.60
2022-12-20T05:23:58.424Z,28.20
2022-12-20T05:27:26.003Z,28.50
2022-12-20T05:30:53.443Z,26.70
2022-12-20T05:34:20.607Z,27.40
2022-12-20T05:37:51.290Z,26.90
2022-12-20T05:41:18.664Z,25.90
2022-12-20T05:44:48.221Z,25.10
2022-12-20T05:48:15.701Z,25.70
2022-12-20T05:51:43.471Z,26.20
2022-12-20T05:55:23.377Z,27.00
2022-12-20T05:58:52.904Z,24.80
2022-12-20T06:02:20.805Z,26.80
2022-12-20T06:05:51.490Z,25.30
2022-12-20T06:09:24.190Z,26.40
2022-12-20T06:13:00.133Z,25.00
2022-12-20T06:16:28.058Z,25.80
2022-12-20T06:20:06.401Z,24.60
2022-12-20T06:23:34.482Z,27.10
2022-12-20T06:27:11.351Z,26.40
2022-12-20T06:30:38.419Z,29.40
2022-12-20T06:34:08.181Z,27.90
2022-12-20T06:37:40.731Z,28.40
2022-12-20T06:41:07.770Z,33.50
2022-12-20T06:44:36.445Z,27.10
2022-12-20T06:48:05.077Z,25.70
2022-12-20T06:51:33.933Z,25.70
2022-12-20T06:55:00.951Z,24.40
2022-12-20T06:58:29.225Z,24.80
2022-12-20T07:01:55.893Z,24.60
2022-12-20T07:05:28.389Z,48.60
2022-12-20T07:08:55.267Z,31.40
2022-12-20T07:12:21.571Z,26.50
2022-12-20T07:15:48.665Z,26.70
2022-12-20T07:19:15.938Z,25.20
2022-12-20T07:22:42.620Z,24.50
2022-12-20T07:26:11.522Z,24.80
2022-12-20T07:29:40.753Z,25.30
2022-12-20T07:33:07.938Z,28.40
2022-12-20T07:36:34.878Z,29.10
2022-12-20T07:40:01.458Z,29.10
2022-12-20T07:43:28.395Z,28.50
2022-12-20T07:46:56.071Z,28.80
2022-12-20T07:50:22.881Z,28.40
2022-12-20T07:53:53.365Z,25.80
2022-12-20T07:57:26.403Z,26.80
2022-12-20T08:00:53.545Z,25.30
2022-12-20T08:04:24.852Z,25.60
2022-12-20T08:07:56.952Z,27.30
2022-12-20T08:11:26.427Z,25.90
2022-12-20T08:14:56.460Z,25.60
2022-12-20T08:18:37.960Z,25.70
2022-12-20T08:22:05.246Z,25.30
2022-12-20T08:25:36.018Z,26.20
2022-12-20T08:29:08.843Z,26.50
2022-12-20T08:32:36.923Z,26.40
2022-12-20T08:36:16.249Z,27.60
2022-12-20T08:39:42.849Z,27.80
2022-12-20T08:43:10.468Z,28.70
2022-12-20T08:46:37.926Z,29.10
2022-12-20T08:50:05.036Z,29.60
2022-12-20T08:53:32.864Z,28.80
2022-12-20T08:56:59.987Z,28.50
2022-12-20T09:00:26.620Z,28.40
2022-12-20T09:03:52.893Z,27.40
2022-12-20T09:07:19.477Z,27.90
2022-12-20T09:10:47.182Z,27.60
2022-12-20T09:14:14.132Z,26.50
2022-12-20T09:17:41.075Z,24.90
2022-12-20T09:21:09.659Z,27.30
2022-12-20T09:24:39.187Z,39.90
2022-12-20T09:28:06.465Z,27.40
2022-12-20T09:31:33.567Z,25.10
2022-12-20T09:34:59.908Z,26.30
2022-12-20T09:38:27.086Z,26.80
2022-12-20T09:41:53.454Z,26.40
2022-12-20T09:45:26.654Z,28.80
2022-12-20T09:48:53.371Z,27.40
2022-12-20T09:52:46.635Z,26.50
2022-12-20T09:59:49.508Z,27.20
2022-12-20T10:03:22.113Z,26.00
2022-12-20T10:07:00.775Z,25.40
2022-12-20T10:10:42.864Z,25.90
2022-12-20T10:14:21.283Z,25.40
2022-12-20T10:17:56.912Z,25.60
2022-12-20T10:21:35.129Z,24.60
2022-12-20T10:25:18.491Z,25.00
2022-12-20T10:28:50.699Z,25.40
2022-12-20T10:32:22.664Z,26.00
2022-12-20T10:35:50.826Z,50.10
2022-12-20T10:39:17.976Z,36.60
2022-12-20T10:42:45.133Z,28.90
2022-12-20T10:46:14.731Z,29.10
2022-12-20T10:49:44.377Z,27.10
2022-12-20T10:53:27.650Z,27.00
2022-12-20T10:57:02.205Z,27.80
2022-12-20T11:04:08.677Z,27.10
2022-12-20T11:07:37.098Z,26.90
2022-12-20T11:11:22.204Z,27.10
2022-12-20T11:14:52.361Z,25.20
2022-12-20T11:18:36.128Z,24.80
2022-12-20T11:22:13.280Z,25.40
2022-12-20T11:26:03.743Z,27.10
2022-12-20T11:29:54.335Z,29.90
2022-12-20T11:33:53.414Z,30.50
2022-12-20T11:37:24.118Z,28.20
2022-12-20T11:40:55.970Z,30.30
2022-12-20T11:44:34.508Z,30.80
2022-12-20T11:48:30.544Z,30.60
2022-12-20T11:52:06.186Z,29.20
2022-12-20T11:55:36.294Z,29.10
2022-12-20T11:59:07.139Z,29.20
2022-12-20T12:02:41.418Z,28.20
2022-12-20T12:06:13.416Z,28.10
2022-12-20T12:09:44.764Z,28.20
2022-12-20T12:13:20.521Z,27.90
2022-12-20T12:16:53.144Z,26.40
2022-12-20T12:20:36.145Z,26.30
2022-12-20T12:24:09.350Z,27.30
2022-12-20T12:27:36.653Z,29.20
2022-12-20T12:31:10.985Z,28.40
2022-12-20T12:34:57.269Z,28.00
2022-12-20T12:38:45.249Z,31.70
2022-12-20T12:42:37.822Z,31.40
2022-12-20T12:46:14.237Z,31.40
2022-12-20T12:49:42.200Z,30.50
2022-12-20T12:53:16.261Z,28.90
2022-12-20T12:56:46.880Z,29.50
2022-12-20T13:00:52.258Z,28.20
2022-12-20T13:04:30.270Z,29.10
2022-12-20T13:07:57.146Z,30.40
2022-12-20T13:11:36.049Z,29.20
2022-12-20T13:15:02.933Z,30.30
2022-12-20T13:18:31.941Z,31.00
2022-12-20T13:22:00.487Z,33.90
2022-12-20T13:25:34.189Z,32.50
2022-12-20T13:29:27.406Z,35.70
2022-12-20T13:36:45.766Z,40.40
2022-12-20T13:40:25.911Z,39.50
2022-12-20T13:43:55.363Z,41.30
2022-12-20T13:47:33.929Z,37.50
2022-12-20T13:51:02.917Z,35.60
2022-12-20T13:54:29.586Z,32.20
2022-12-20T13:57:57.043Z,31.80
2022-12-20T14:01:26.784Z,32.60
2022-12-20T14:05:01.348Z,32.10
2022-12-20T14:08:33.199Z,31.80
2022-12-20T14:12:07.009Z,31.20
2022-12-20T14:15:37.015Z,31.90
2022-12-20T14:19:19.684Z,32.30
2022-12-20T14:23:00.718Z,31.40
2022-12-20T14:26:34.663Z,32.40
2022-12-20T14:30:01.595Z,31.20
2022-12-20T14:33:35.607Z,32.90
2022-12-20T14:37:28.700Z,32.30
2022-12-20T14:40:56.288Z,32.70
2022-12-20T14:44:26.807Z,32.10
2022-12-20T14:47:59.501Z,32.00
2022-12-20T14:51:58.540Z,32.50
2022-12-20T14:55:27.778Z,32.80
2022-12-20T14:59:14.732Z,31.00
2022-12-20T15:02:44.552Z,31.70
2022-12-20T15:06:35.842Z,30.50
2022-12-20T15:10:03.304Z,30.40
2022-12-20T15:13:34.248Z,29.70
2022-12-20T15:17:13.436Z,31.90
2022-12-20T15:20:40.529Z,31.50
2022-12-20T15:24:12.069Z,31.30
2022-12-20T15:27:38.875Z,37.40
2022-12-20T15:31:06.617Z,39.40
2022-12-20T15:34:38.186Z,35.30
2022-12-20T15:38:04.895Z,34.30
2022-12-20T15:41:34.284Z,35.60
2022-12-20T15:45:03.597Z,35.70
2022-12-20T15:48:30.339Z,35.80
2022-12-20T15:51:59.762Z,42.30
2022-12-20T15:55:26.855Z,38.30
2022-12-20T15:58:54.941Z,50.10
2022-12-20T16:02:25.464Z,53.50
2022-12-20T16:05:54.571Z,49.80
2022-12-20T16:09:22.006Z,42.90
2022-12-20T16:12:49.671Z,38.70
2022-12-20T16:16:23.241Z,37.40
2022-12-20T16:19:49.931Z,37.50
2022-12-20T16:23:22.882Z,36.50
2022-12-20T16:26:52.151Z,39.10
2022-12-20T16:30:19.668Z,40.20
2022-12-20T16:33:46.456Z,40.40
2022-12-20T16:37:13.269Z,39.00
2022-12-20T16:40:39.700Z,48.50
2022-12-20T16:44:07.111Z,48.20
2022-12-20T16:47:33.743Z,42.30
2022-12-20T16:51:01.655Z,41.80
2022-12-20T16:54:28.280Z,39.60
2022-12-20T16:57:55.874Z,39.90
2022-12-20T17:01:25.120Z,40.70
2022-12-20T17:04:53.152Z,42.60
2022-12-20T17:12:05.630Z,39.40
2022-12-20T17:15:34.013Z,37.50
2022-12-20T17:19:01.146Z,40.20
2022-12-20T17:26:15.359Z,39.70
2022-12-20T17:29:42.861Z,40.30
2022-12-20T17:33:15.884Z,39.30
2022-12-20T17:36:42.972Z,40.10
2022-12-20T17:40:14.603Z,42.70
2022-12-20T17:43:41.182Z,41.80
2022-12-20T17:47:08.376Z,40.80
2022-12-20T17:50:35.851Z,39.70
2022-12-20T17:54:03.682Z,41.20
2022-12-20T17:57:30.959Z,42.70
2022-12-20T18:00:58.092Z,42.50
2022-12-20T18:04:24.848Z,44.10
2022-12-20T18:07:56.535Z,42.70
2022-12-20T18:11:26.564Z,39.50
2022-12-20T18:14:53.542Z,45.60
2022-12-20T18:18:20.090Z,41.90
2022-12-20T18:21:47.444Z,43.60
2022-12-20T18:25:18.385Z,47.70
2022-12-20T18:28:49.475Z,43.80
2022-12-20T18:32:16.373Z,46.20
2022-12-20T18:35:42.670Z,44.50
2022-12-20T18:39:13.387Z,45.30
2022-12-20T18:42:39.651Z,46.80
2022-12-20T18:46:08.561Z,48.40
2022-12-20T18:49:37.693Z,49.00
2022-12-20T18:53:04.431Z,47.20
2022-12-20T18:56:32.931Z,45.00
2022-12-20T18:59:59.741Z,44.90
2022-12-20T19:03:26.501Z,42.00
2022-12-20T19:06:53.608Z,41.80
2022-12-20T19:10:20.626Z,40.30
2022-12-20T19:13:48.397Z,43.20
2022-12-20T19:17:17.627Z,39.10
2022-12-20T19:20:44.470Z,39.40
2022-12-20T19:24:12.540Z,36.00
2022-12-20T19:27:39.330Z,39.00
2022-12-20T19:31:17.386Z,36.90
2022-12-20T19:34:47.612Z,37.70
2022-12-20T19:38:17.029Z,39.00
2022-12-20T19:41:54.877Z,37.30
2022-12-20T19:45:22.200Z,37.30
2022-12-20T19:48:49.688Z,36.50
2022-12-20T19:52:26.479Z,40.20
2022-12-20T19:56:01.791Z,39.10
2022-12-20T19:59:31.709Z,44.50
2022-12-20T20:02:59.019Z,46.90
2022-12-20T20:06:28.907Z,40.50
2022-12-20T20:09:56.879Z,38.50
2022-12-20T20:13:24.775Z,37.20
2022-12-20T20:16:53.448Z,36.10
2022-12-20T20:20:20.964Z,37.10
2022-12-20T20:23:49.589Z,37.00
2022-12-20T20:27:20.010Z,35.80
2022-12-20T20:30:49.350Z,34.70
2022-12-20T20:34:18.324Z,37.30
2022-12-20T20:37:49.087Z,36.60
2022-12-20T20:41:17.651Z,36.90
2022-12-20T20:44:44.974Z,36.40
2022-12-20T20:48:12.073Z,36.90
2022-12-20T20:51:38.765Z,37.20
2022-12-20T20:55:07.710Z,39.30
2022-12-20T20:58:35.878Z,39.70
2022-12-20T21:02:06.675Z,41.10
2022-12-20T21:09:24.833Z,36.20
2022-12-20T21:12:56.074Z,36.90
2022-12-20T21:16:24.806Z,35.30
2022-12-20T21:19:52.419Z,35.10
2022-12-20T21:23:19.254Z,36.10
2022-12-20T21:26:47.978Z,35.50
2022-12-20T21:30:17.595Z,38.50
2022-12-20T21:33:46.011Z,37.10
2022-12-20T21:37:12.393Z,35.90
2022-12-20T21:40:39.498Z,35.80
2022-12-20T21:44:08.653Z,37.30
2022-12-20T21:47:37.580Z,37.30
2022-12-20T21:51:06.416Z,38.30
2022-12-20T21:54:36.475Z,38.90
2022-12-20T21:58:03.172Z,39.00
2022-12-20T22:01:32.069Z,38.30
2022-12-20T22:04:58.785Z,36.70
2022-12-20T22:08:27.274Z,35.10
2022-12-20T22:11:54.820Z,36.50
2022-12-20T22:15:21.571Z,35.20
2022-12-20T22:18:54.401Z,34.30
2022-12-20T22:22:21.250Z,36.80
2022-12-20T22:25:49.284Z,36.00
2022-12-20T22:29:15.863Z,35.20
2022-12-20T22:32:44.872Z,36.20
2022-12-20T22:36:13.584Z,38.50
2022-12-20T22:39:42.301Z,41.50
2022-12-20T22:43:08.751Z,42.40
2022-12-20T22:50:21.400Z,38.10
2022-12-20T22:53:56.936Z,37.50
2022-12-20T22:57:24.158Z,38.00
2022-12-20T23:00:53.639Z,39.00
2022-12-20T23:04:20.760Z,35.70
2022-12-20T23:07:47.444Z,39.20
2022-12-20T23:11:33.116Z,36.50
2022-12-20T23:15:17.674Z,37.60
2022-12-20T23:18:44.911Z,35.10
2022-12-20T23:22:30.213Z,33.40
2022-12-20T23:25:56.748Z,34.00
2022-12-20T23:29:23.746Z,41.10
2022-12-20T23:32:50.978Z,41.30
2022-12-20T23:36:17.644Z,37.50
2022-12-20T23:39:44.549Z,39.80
2022-12-20T23:43:11.263Z,42.20
2022-12-20T23:46:38.553Z,42.20
2022-12-20T23:50:13.714Z,38.20
2022-12-20T23:53:40.901Z,40.40
2022-12-20T23:57:08.891Z,39.90
